ソルトレイクシティ の空港の天気 - METARとTAF

ソルト・レーク・シティ国際空港 ( KSLC / SLC ) - アメリカ ユタ州ソルトレイクシティ
飛行場実況気象(Metar)
観測時間04/26 22:54 MDT (04/27 04:54 UTC)
風向・風速南 2m/s
視程10km以上
天気現象
なし
気温16.1℃
湿度39%
気圧1013.8hPa
METARKSLC 270454Z 17003KT 10SM CLR 16/02 A3005 RMK AO2 SLP138 T01610022
過去の天気等 Google飛行場航空写真 Wunderground天気予報

過去48時間のMETAR

飛行場予報(TAF)
発表時間: 4/26 21:01 MDT (4/27 03:01 UTC)
予報対象時間: 26日21時 MDT ~ 28日0時 MDT
風向・風速南南東 3m/s
視程10km以上
なし
27日14時 MDT から
風向・風速北北西 4m/s
視程10km以上
全天の4割程度の雲 雲底高度 3,050m
全天の8割程度の雲 雲底高度 4,570m
27日20時 MDT から
風向・風速南南東 5m/s
視程10km以上
少しの雲 雲底高度 3,050m
全天の4割程度の雲 雲底高度 4,570m
KSLC 270301Z 2703/2806 16006KT P6SM SKC
FM272000 33008KT P6SM SCT100 BKN150
FM280200 15010KT P6SM FEW100 SCT150